Map

Track Data

SID SEASON NUMBER BASIN SUBBASIN NAME ISO_TIME NATURE LAT LON WMO_WIND WMO_PRES WMO_AGENCY TRACK_TYPE DIST2LAND LANDFALL IFLAG USA_AGENCY USA_ATCF_ID USA_LAT USA_LON USA_RECORD USA_STATUS USA_WIND USA_PRES USA_SSHS USA_R34_NE USA_R34_SE USA_R34_SW USA_R34_NW USA_R50_NE USA_R50_SE USA_R50_SW USA_R50_NW USA_R64_NE USA_R64_SE USA_R64_SW USA_R64_NW USA_POCI USA_ROCI USA_RMW USA_EYE TOKYO_LAT TOKYO_LON TOKYO_GRADE TOKYO_WIND TOKYO_PRES TOKYO_R50_DIR TOKYO_R50_LONG TOKYO_R50_SHORT TOKYO_R30_DIR TOKYO_R30_LONG TOKYO_R30_SHORT TOKYO_LAND CMA_LAT CMA_LON CMA_CAT CMA_WIND CMA_PRES HKO_LAT HKO_LON HKO_CAT HKO_WIND HKO_PRES NEWDELHI_LAT NEWDELHI_LON NEWDELHI_GRADE NEWDELHI_WIND NEWDELHI_PRES NEWDELHI_CI NEWDELHI_DP NEWDELHI_POCI REUNION_LAT REUNION_LON REUNION_TYPE REUNION_WIND REUNION_PRES REUNION_TNUM REUNION_CI REUNION_RMW REUNION_R34_NE REUNION_R34_SE REUNION_R34_SW REUNION_R34_NW REUNION_R50_NE REUNION_R50_SE REUNION_R50_SW REUNION_R50_NW REUNION_R64_NE REUNION_R64_SE REUNION_R64_SW REUNION_R64_NW BOM_LAT BOM_LON BOM_TYPE BOM_WIND BOM_PRES BOM_TNUM BOM_CI BOM_RMW BOM_R34_NE BOM_R34_SE BOM_R34_SW BOM_R34_NW BOM_R50_NE BOM_R50_SE BOM_R50_SW BOM_R50_NW BOM_R64_NE BOM_R64_SE BOM_R64_SW BOM_R64_NW BOM_ROCI BOM_POCI BOM_EYE BOM_POS_METHOD BOM_PRES_METHOD NADI_LAT NADI_LON NADI_CAT NADI_WIND NADI_PRES WELLINGTON_LAT WELLINGTON_LON WELLINGTON_WIND WELLINGTON_PRES DS824_LAT DS824_LON DS824_STAGE DS824_WIND DS824_PRES TD9636_LAT TD9636_LON TD9636_STAGE TD9636_WIND TD9636_PRES TD9635_LAT TD9635_LON TD9635_WIND TD9635_PRES TD9635_ROCI NEUMANN_LAT NEUMANN_LON NEUMANN_CLASS NEUMANN_WIND NEUMANN_PRES MLC_LAT MLC_LON MLC_CLASS MLC_WIND MLC_PRES USA_GUST BOM_GUST BOM_GUST_PER REUNION_GUST REUNION_GUST_PER USA_SEAHGT USA_SEARAD_NE USA_SEARAD_SE USA_SEARAD_SW USA_SEARAD_NW STORM_SPEED STORM_DIR
1994247N18251 1994 77 EP MM LANE 1994-09-03 18:00:00 TS 17.7000 -108.600 30 1009 hurdat_epa main 413 413 O_____________ hurdat_epa EP141994 17.7000 -108.600 TD 30 1009 -1 12 285
1994247N18251 1994 77 EP MM LANE 1994-09-03 21:00:00 TS 17.8630 -109.222 main 454 454 P_____________ EP141994 17.8630 -109.222 TD 30 1009 -1 12 285
1994247N18251 1994 77 EP MM LANE 1994-09-04 00:00:00 TS 18.0000 -109.800 30 1009 hurdat_epa main 504 504 O_____________ hurdat_epa EP141994 18.0000 -109.800 TD 30 1009 -1 11 283
1994247N18251 1994 77 EP MM LANE 1994-09-04 03:00:00 TS 18.0997 -110.308 main 537 529 P_____________ EP141994 18.0997 -110.308 TD 32 1007 -1 10 282
1994247N18251 1994 77 EP MM LANE 1994-09-04 06:00:00 TS 18.2000 -110.800 35 1006 hurdat_epa main 532 518 O_____________ hurdat_epa EP141994 18.2000 -110.800 TS 35 1006 0 10 286
1994247N18251 1994 77 EP MM LANE 1994-09-04 09:00:00 TS 18.3799 -111.342 main 521 519 P_____________ EP141994 18.3799 -111.342 TS 35 1005 0 11 286
1994247N18251 1994 77 EP MM LANE 1994-09-04 12:00:00 TS 18.5000 -111.900 35 1005 hurdat_epa main 530 530 O_____________ hurdat_epa EP141994 18.5000 -111.900 TS 35 1005 0 11 273
1994247N18251 1994 77 EP MM LANE 1994-09-04 15:00:00 TS 18.4298 -112.450 main 566 566 P_____________ EP141994 18.4298 -112.450 TS 40 1003 0 11 259
1994247N18251 1994 77 EP MM LANE 1994-09-04 18:00:00 TS 18.3000 -113.000 45 1002 hurdat_epa main 601 601 O_____________ hurdat_epa EP141994 18.3000 -113.000 TS 45 1002 0 10 259
1994247N18251 1994 77 EP MM LANE 1994-09-04 21:00:00 TS 18.2346 -113.527 main 639 639 P_____________ EP141994 18.2346 -113.527 TS 45 1001 0 11 265
1994247N18251 1994 77 EP MM LANE 1994-09-05 00:00:00 TS 18.2000 -114.100 45 1000 hurdat_epa main 676 676 O_____________ hurdat_epa EP141994 18.2000 -114.100 TS 45 1000 0 12 268
1994247N18251 1994 77 EP MM LANE 1994-09-05 03:00:00 TS 18.2001 -114.785 main 725 725 P_____________ EP141994 18.2001 -114.785 TS 50 997 0 13 270
1994247N18251 1994 77 EP MM LANE 1994-09-05 06:00:00 TS 18.2000 -115.500 55 995 hurdat_epa main 777 777 O_____________ hurdat_epa EP141994 18.2000 -115.500 TS 55 995 0 13 268
1994247N18251 1994 77 EP MM LANE 1994-09-05 09:00:00 TS 18.1570 -116.143 main 824 824 P_____________ EP141994 18.1570 -116.143 TS 57 990 0 12 265
1994247N18251 1994 77 EP MM LANE 1994-09-05 12:00:00 TS 18.1000 -116.800 60 986 hurdat_epa main 883 883 O_____________ hurdat_epa EP141994 18.1000 -116.800 TS 60 986 0 13 265
1994247N18251 1994 77 EP MM LANE 1994-09-05 15:00:00 TS 18.0425 -117.543 main 934 934 P_____________ EP141994 18.0425 -117.543 TS 65 983 1 14 266
1994247N18251 1994 77 EP MM LANE 1994-09-05 18:00:00 TS 18.0000 -118.300 70 980 hurdat_epa main 986 986 O_____________ hurdat_epa EP141994 18.0000 -118.300 HU 70 980 1 14 268
1994247N18251 1994 77 EP MM LANE 1994-09-05 21:00:00 TS 17.9922 -119.007 main 1034 1034 P_____________ EP141994 17.9922 -119.007 HU 80 975 1 13 270
1994247N18251 1994 77 EP MM LANE 1994-09-06 00:00:00 TS 18.0000 -119.700 90 970 hurdat_epa main 1085 1085 O_____________ hurdat_epa EP141994 18.0000 -119.700 HU 90 970 2 13 270
1994247N18251 1994 77 EP MM LANE 1994-09-06 03:00:00 TS 17.9923 -120.400 main 1138 1138 P_____________ EP141994 17.9923 -120.400 HU 95 965 2 13 270
1994247N18251 1994 77 EP MM LANE 1994-09-06 06:00:00 TS 18.0000 -121.100 100 960 hurdat_epa main 1193 1193 O_____________ hurdat_epa EP141994 18.0000 -121.100 HU 100 960 3 13 272
1994247N18251 1994 77 EP MM LANE 1994-09-06 09:00:00 TS 18.0273 -121.800 main 1250 1250 P_____________ EP141994 18.0273 -121.800 HU 105 956 3 13 274
1994247N18251 1994 77 EP MM LANE 1994-09-06 12:00:00 TS 18.1000 -122.500 110 952 hurdat_epa main 1301 1301 O_____________ hurdat_epa EP141994 18.1000 -122.500 HU 110 952 3 14 279
1994247N18251 1994 77 EP MM LANE 1994-09-06 15:00:00 TS 18.2423 -123.207 main 1350 1341 P_____________ EP141994 18.2423 -123.207 HU 112 950 3 14 283
1994247N18251 1994 77 EP MM LANE 1994-09-06 18:00:00 TS 18.4000 -123.900 115 949 hurdat_epa main 1380 1380 O_____________ hurdat_epa EP141994 18.4000 -123.900 HU 115 949 4 13 281
1994247N18251 1994 77 EP MM LANE 1994-09-06 21:00:00 TS 18.4922 -124.558 main 1420 1420 P_____________ EP141994 18.4922 -124.558 HU 115 948 4 13 279
1994247N18251 1994 77 EP MM LANE 1994-09-07 00:00:00 TS 18.6000 -125.200 115 948 hurdat_epa main 1455 1455 O_____________ hurdat_epa EP141994 18.6000 -125.200 HU 115 948 4 13 283
1994247N18251 1994 77 EP MM LANE 1994-09-07 03:00:00 TS 18.7849 -125.857 main 1491 1491 P_____________ EP141994 18.7849 -125.857 HU 115 948 4 13 288
1994247N18251 1994 77 EP MM LANE 1994-09-07 06:00:00 TS 19.0000 -126.500 115 949 hurdat_epa main 1522 1522 O_____________ hurdat_epa EP141994 19.0000 -126.500 HU 115 949 4 13 290
1994247N18251 1994 77 EP MM LANE 1994-09-07 09:00:00 TS 19.2072 -127.100 main 1555 1555 P_____________ EP141994 19.2072 -127.100 HU 110 952 3 12 289
1994247N18251 1994 77 EP MM LANE 1994-09-07 12:00:00 TS 19.4000 -127.700 105 955 hurdat_epa main 1590 1590 O_____________ hurdat_epa EP141994 19.4000 -127.700 HU 105 955 3 12 286
1994247N18251 1994 77 EP MM LANE 1994-09-07 15:00:00 TS 19.5499 -128.350 main 1641 1635 P_____________ EP141994 19.5499 -128.350 HU 100 962 3 13 284
1994247N18251 1994 77 EP MM LANE 1994-09-07 18:00:00 TS 19.7000 -129.000 95 970 hurdat_epa main 1679 1679 O_____________ hurdat_epa EP141994 19.7000 -129.000 HU 95 970 2 12 286
1994247N18251 1994 77 EP MM LANE 1994-09-07 21:00:00 TS 19.8921 -129.600 main 1719 1719 P_____________ EP141994 19.8921 -129.600 HU 87 974 2 12 290
1994247N18251 1994 77 EP MM LANE 1994-09-08 00:00:00 TS 20.1000 -130.200 80 979 hurdat_epa main 1760 1760 O_____________ hurdat_epa EP141994 20.1000 -130.200 HU 80 979 1 12 289
1994247N18251 1994 77 EP MM LANE 1994-09-08 03:00:00 TS 20.2999 -130.850 main 1811 1811 P_____________ EP141994 20.2999 -130.850 HU 72 982 1 13 288
1994247N18251 1994 77 EP MM LANE 1994-09-08 06:00:00 TS 20.5000 -131.500 65 986 hurdat_epa main 1854 1854 O_____________ hurdat_epa EP141994 20.5000 -131.500 HU 65 986 1 13 289
1994247N18251 1994 77 EP MM LANE 1994-09-08 09:00:00 TS 20.7147 -132.108 main 1899 1899 P_____________ EP141994 20.7147 -132.108 HU 60 990 0 12 290
1994247N18251 1994 77 EP MM LANE 1994-09-08 12:00:00 TS 20.9000 -132.700 55 994 hurdat_epa main 1923 1923 O_____________ hurdat_epa EP141994 20.9000 -132.700 TS 55 994 0 12 285
1994247N18251 1994 77 EP MM LANE 1994-09-08 15:00:00 TS 21.0148 -133.300 main 1951 1951 P_____________ EP141994 21.0148 -133.300 TS 52 995 0 11 280
1994247N18251 1994 77 EP MM LANE 1994-09-08 18:00:00 TS 21.1000 -133.900 50 997 hurdat_epa main 1980 1980 O_____________ hurdat_epa EP141994 21.1000 -133.900 TS 50 997 0 11 280
1994247N18251 1994 77 EP MM LANE 1994-09-08 21:00:00 TS 21.2072 -134.493 main 2011 2011 P_____________ EP141994 21.2072 -134.493 TS 45 999 0 11 280
1994247N18251 1994 77 EP MM LANE 1994-09-09 00:00:00 TS 21.3000 -135.100 40 1002 hurdat_epa main 2043 1999 O_____________ hurdat_epa EP141994 21.3000 -135.100 TS 40 1002 0 12 278
1994247N18251 1994 77 EP MM LANE 1994-09-09 03:00:00 TS 21.3648 -135.743 main 1999 1927 P_____________ EP141994 21.3648 -135.743 TS 37 1005 0 12 275
1994247N18251 1994 77 EP MM LANE 1994-09-09 06:00:00 TS 21.4000 -136.400 35 1008 hurdat_epa main 1927 1865 O_____________ hurdat_epa EP141994 21.4000 -136.400 TS 35 1008 0 12 272
1994247N18251 1994 77 EP MM LANE 1994-09-09 09:00:00 TS 21.3998 -137.058 main 1855 1793 P_____________ EP141994 21.3998 -137.058 TS 32 1008 -1 12 270
1994247N18251 1994 77 EP MM LANE 1994-09-09 12:00:00 TS 21.4000 -137.700 30 1009 hurdat_epa main 1793 1731 O_____________ hurdat_epa EP141994 21.4000 -137.700 TD 30 1009 -1 12 273
1994247N18251 1994 77 EP MM LANE 1994-09-09 15:00:00 TS 21.4573 -138.315 main 1731 1670 P_____________ EP141994 21.4573 -138.315 TD 27 1009 -1 11 275
1994247N18251 1994 77 EP MM LANE 1994-09-09 18:00:00 TS 21.5000 -138.900 25 1009 hurdat_epa main 1670 1618 O_____________ hurdat_epa EP141994 21.5000 -138.900 TD 25 1009 -1 10 270
1994247N18251 1994 77 EP MM LANE 1994-09-09 21:00:00 TS 21.4645 -139.435 main 1618 1555 P_____________ EP141994 21.4645 -139.435 TD 25 1009 -1 10 264
1994247N18251 1994 77 EP CP LANE 1994-09-10 00:00:00 TS 21.4000 -140.000 25 1010 hurdat_epa main 1555 1493 O_____________ hurdat_epa EP141994 21.4000 -140.000 TD 25 1010 -1 12 264
1994247N18251 1994 77 EP CP LANE 1994-09-10 03:00:00 TS 21.3499 -140.670 main 1482 1410 P_____________ EP141994 21.3499 -140.670 TD 25 1010 -1 13 266
1994247N18251 1994 77 EP CP LANE 1994-09-10 06:00:00 TS 21.3000 -141.400 25 1010 hurdat_epa main 1410 1338 O_____________ hurdat_epa EP141994 21.3000 -141.400 TD 25 1010 -1 14 266
1994247N18251 1994 77 EP CP LANE 1994-09-10 09:00:00 TS 21.2506 -142.148 main 1338 1254 P_____________ EP141994 21.2506 -142.148 TD 25 1010 -1 14 266
1994247N18251 1994 77 EP CP LANE 1994-09-10 12:00:00 TS 21.2000 -142.900 25 1010 hurdat_epa main 1254 O_____________ hurdat_epa EP141994 21.2000 -142.900 TD 25 1010 -1 14 266

About IBTrACS Database

This database is a web-friendly format of International Best Track Archive for Climate Stewardship (IBTrACS), a global best track data archive curated by NOAA dating back to 1842.

Updated: 2021-10-08